Time;durP1;ratioP1;P1;durP2;ratioP2;P2;SDS_P1;SDS_P2;PMS_P1;PMS_P2;Temp;Humidity;BMP_temperature;BMP_pressure;BME280_temperature;BME280_humidity;BME280_pressure;Samples;Min_cycle;Max_cycle;Signal;HPM_P1;HPM_P2
2023/08/17 00:01:27;;;;;;;10.98;1.60;;;;;;;19.84;100.00;100795.91;4974312;28;20098;-77
2023/08/17 00:04:30;;;;;;;9.50;1.52;;;;;;;19.85;100.00;100797.63;4974324;28;20062;-77
2023/08/17 00:07:33;;;;;;;10.40;1.60;;;;;;;19.84;100.00;100805.69;4974038;28;20132;-77
2023/08/17 00:10:38;;;;;;;7.07;1.67;;;;;;;19.85;100.00;100804.75;4974248;28;20101;-77
2023/08/17 00:13:42;;;;;;;9.70;1.75;;;;;;;19.89;100.00;100803.50;4973969;28;20045;-77
2023/08/17 00:16:45;;;;;;;4.68;1.83;;;;;;;19.92;100.00;100805.88;4973967;28;20105;-78
2023/08/17 00:19:49;;;;;;;9.85;1.95;;;;;;;19.90;100.00;100810.47;4973684;28;20046;-78
2023/08/17 00:22:52;;;;;;;11.90;2.22;;;;;;;19.85;100.00;100802.09;4971982;28;20105;-77
2023/08/17 00:25:56;;;;;;;6.93;2.38;;;;;;;19.83;100.00;100819.94;4973537;28;20093;-77
2023/08/17 00:28:59;;;;;;;7.07;2.72;;;;;;;19.76;100.00;100818.81;4974150;28;20413;-77
2023/08/17 00:32:03;;;;;;;4.75;2.30;;;;;;;19.76;100.00;100821.47;4973720;28;20041;-77
2023/08/17 00:35:06;;;;;;;7.35;2.17;;;;;;;19.80;100.00;100814.91;4973658;28;20170;-77
2023/08/17 00:38:10;;;;;;;7.60;2.15;;;;;;;19.77;100.00;100810.69;4973625;28;20113;-77
2023/08/17 00:41:13;;;;;;;4.18;1.90;;;;;;;19.84;100.00;100806.53;4973547;28;20049;-77
2023/08/17 00:44:16;;;;;;;5.63;2.20;;;;;;;19.87;100.00;100814.22;4961647;28;20045;-77
2023/08/17 00:47:19;;;;;;;8.57;1.58;;;;;;;19.81;100.00;100819.22;4973517;28;20530;-77
2023/08/17 00:50:24;;;;;;;8.00;3.42;;;;;;;19.78;100.00;100822.16;4973460;28;20137;-78
2023/08/17 00:53:30;;;;;;;7.93;2.17;;;;;;;19.77;100.00;100823.97;4966974;28;20113;-78
2023/08/17 00:56:36;;;;;;;8.18;1.63;;;;;;;19.78;100.00;100832.75;4942391;29;20054;-78
2023/08/17 00:59:39;;;;;;;6.93;2.20;;;;;;;19.77;100.00;100834.59;4942441;29;20077;-78
2023/08/17 01:02:43;;;;;;;5.90;1.80;;;;;;;19.80;100.00;100836.13;4943269;29;20109;-78
2023/08/17 01:05:46;;;;;;;6.63;1.95;;;;;;;19.82;100.00;100828.91;4945772;29;20057;-78
2023/08/17 01:08:50;;;;;;;10.25;2.00;;;;;;;19.74;100.00;100825.06;4957448;29;20133;-77
2023/08/17 01:12:00;;;;;;;6.45;1.60;;;;;;;19.77;100.00;100821.31;4945785;29;20413;-77
2023/08/17 01:15:37;;;;;;;8.40;1.67;;;;;;;19.80;100.00;100820.22;4957677;29;20074;-77
2023/08/17 01:18:40;;;;;;;7.28;2.53;;;;;;;19.73;100.00;100804.81;4956454;29;20413;-78
2023/08/17 01:21:50;;;;;;;8.70;2.13;;;;;;;19.72;100.00;100811.13;4945606;29;20416;-77
2023/08/17 01:24:59;;;;;;;8.40;2.33;;;;;;;19.69;100.00;100803.41;4957503;29;20086;-78
2023/08/17 01:28:04;;;;;;;8.75;2.03;;;;;;;19.66;100.00;100802.84;4957342;29;20107;-77
2023/08/17 01:31:22;;;;;;;4.80;2.03;;;;;;;19.61;100.00;100800.53;4964899;28;20416;-77
2023/08/17 01:34:29;;;;;;;6.40;1.98;;;;;;;19.63;100.00;100797.78;4951836;28;20478;-77
2023/08/17 01:37:39;;;;;;;4.63;1.75;;;;;;;19.64;100.00;100780.91;4965420;28;20054;-77
2023/08/17 01:40:43;;;;;;;3.78;2.05;;;;;;;19.71;100.00;100788.19;4967416;28;20097;-77
2023/08/17 01:43:50;;;;;;;8.38;2.63;;;;;;;19.69;100.00;100781.34;4952254;28;20046;-77
2023/08/17 01:46:54;;;;;;;6.38;2.20;;;;;;;19.62;100.00;100781.03;4965583;28;20054;-77
2023/08/17 01:49:59;;;;;;;7.13;3.28;;;;;;;19.57;100.00;100772.59;4966474;28;20045;-77
2023/08/17 01:53:03;;;;;;;8.45;2.13;;;;;;;19.57;100.00;100785.88;4967150;28;20049;-76
2023/08/17 01:56:06;;;;;;;5.28;1.88;;;;;;;19.52;100.00;100778.28;4963113;28;20473;-78
2023/08/17 01:59:09;;;;;;;4.97;2.45;;;;;;;19.61;100.00;100774.00;4964203;28;20524;-77
2023/08/17 02:02:14;;;;;;;8.02;2.53;;;;;;;19.60;100.00;100776.81;4951831;28;20534;-76
2023/08/17 02:05:17;;;;;;;6.88;2.15;;;;;;;19.63;100.00;100781.84;4963909;28;20142;-78
2023/08/17 02:08:22;;;;;;;8.00;2.00;;;;;;;19.54;100.00;100787.94;4963845;28;20049;-77
2023/08/17 02:11:26;;;;;;;8.75;2.65;;;;;;;19.46;100.00;100785.94;4976221;28;20408;-77
2023/08/17 02:14:31;;;;;;;5.50;1.70;;;;;;;19.50;100.00;100782.06;4962694;28;20570;-77
2023/08/17 02:17:34;;;;;;;6.28;2.00;;;;;;;19.57;100.00;100777.06;4975908;28;20097;-77
2023/08/17 02:20:38;;;;;;;5.95;2.55;;;;;;;19.58;100.00;100774.28;4975849;28;20057;-78
2023/08/17 02:23:41;;;;;;;5.97;2.50;;;;;;;19.55;100.00;100782.50;4975805;28;20154;-78
2023/08/17 02:26:44;;;;;;;8.75;2.60;;;;;;;19.57;100.00;100772.59;4963897;28;20058;-78
2023/08/17 02:29:47;;;;;;;7.60;2.40;;;;;;;19.47;100.00;100763.78;4975571;28;20559;-77
2023/08/17 02:32:51;;;;;;;7.28;2.83;;;;;;;19.41;100.00;100764.28;4975541;28;20472;-78
2023/08/17 02:35:54;;;;;;;9.85;2.70;;;;;;;19.39;100.00;100756.44;4975385;28;20078;-77
2023/08/17 02:38:57;;;;;;;8.55;2.47;;;;;;;19.38;100.00;100749.47;4963495;28;20396;-77
2023/08/17 02:42:01;;;;;;;8.10;2.33;;;;;;;19.33;100.00;100750.84;4975277;28;20557;-76
2023/08/17 02:45:04;;;;;;;11.35;2.60;;;;;;;19.38;100.00;100744.19;4963612;28;20053;-77
2023/08/17 02:48:07;;;;;;;11.77;2.72;;;;;;;19.42;100.00;100742.94;4975130;28;20057;-77
2023/08/17 02:51:10;;;;;;;6.38;2.53;;;;;;;19.39;100.00;100745.00;4963206;28;20045;-77
2023/08/17 02:54:15;;;;;;;9.57;2.30;;;;;;;19.35;100.00;100747.09;4963129;28;20134;-76
2023/08/17 02:57:18;;;;;;;7.25;2.63;;;;;;;19.31;100.00;100744.84;4975150;28;20508;-76
2023/08/17 03:00:25;;;;;;;7.30;2.55;;;;;;;19.24;100.00;100750.66;4975051;28;20101;-77
2023/08/17 03:03:29;;;;;;;4.28;2.40;;;;;;;19.24;100.00;100747.16;4963490;28;20215;-77
2023/08/17 03:06:32;;;;;;;7.75;2.40;;;;;;;19.29;100.00;100748.44;4974977;28;20177;-77
2023/08/17 03:09:35;;;;;;;10.73;3.17;;;;;;;19.32;100.00;100750.00;4975223;28;20058;-77
2023/08/17 03:12:39;;;;;;;13.38;3.72;;;;;;;19.35;100.00;100751.56;4974861;28;20058;-77
2023/08/17 03:15:43;;;;;;;5.55;2.75;;;;;;;19.34;100.00;100752.53;4975010;28;20080;-77
2023/08/17 03:18:48;;;;;;;4.63;2.03;;;;;;;19.28;100.00;100740.63;4974995;28;20062;-78
2023/08/17 03:21:51;;;;;;;7.28;2.42;;;;;;;19.25;100.00;100747.03;4974588;28;20093;-78
2023/08/17 03:24:55;;;;;;;6.95;2.40;;;;;;;19.21;100.00;100750.94;4974572;28;20129;-78
2023/08/17 03:28:00;;;;;;;6.22;2.60;;;;;;;19.21;100.00;100755.41;4974664;28;20567;-77
2023/08/17 03:31:03;;;;;;;13.65;2.17;;;;;;;19.24;100.00;100755.97;4974583;28;20477;-77
2023/08/17 03:34:06;;;;;;;6.40;2.58;;;;;;;19.25;100.00;100752.34;4962461;28;20559;-77
2023/08/17 03:37:10;;;;;;;8.80;2.53;;;;;;;19.28;100.00;100754.72;4962439;28;20046;-77
2023/08/17 03:40:16;;;;;;;8.68;3.20;;;;;;;19.33;100.00;100748.19;4962470;28;20045;-77
2023/08/17 03:43:22;;;;;;;12.93;3.00;;;;;;;19.39;100.00;100750.31;4974332;28;20046;-77
2023/08/17 03:46:25;;;;;;;6.68;2.50;;;;;;;19.41;100.00;100753.69;4962388;28;20041;-77
2023/08/17 03:49:29;;;;;;;13.70;2.95;;;;;;;19.43;100.00;100751.72;4962354;28;20041;-77
2023/08/17 03:52:34;;;;;;;6.68;3.03;;;;;;;19.48;100.00;100752.19;4974219;28;20085;-77
2023/08/17 03:55:37;;;;;;;9.90;2.70;;;;;;;19.38;100.00;100761.91;4974078;28;20620;-77
2023/08/17 03:58:43;;;;;;;9.20;2.92;;;;;;;19.24;100.00;100750.66;4962259;28;20412;-75
2023/08/17 04:01:47;;;;;;;9.43;3.10;;;;;;;19.29;100.00;100764.34;4962172;28;20105;-75
2023/08/17 04:04:51;;;;;;;9.05;3.10;;;;;;;19.23;100.00;100759.56;4962215;28;20050;-75
2023/08/17 04:07:54;;;;;;;11.80;3.30;;;;;;;19.28;100.00;100761.84;4973765;28;20053;-76
2023/08/17 04:11:00;;;;;;;8.45;3.15;;;;;;;19.25;100.00;100762.94;4961917;28;20053;-76
2023/08/17 04:14:04;;;;;;;7.20;2.40;;;;;;;19.31;100.00;100766.06;4961902;28;20046;-76
2023/08/17 04:17:07;;;;;;;12.60;3.47;;;;;;;19.33;100.00;100772.88;4973831;28;20097;-76
2023/08/17 04:20:11;;;;;;;8.98;3.10;;;;;;;19.26;100.00;100772.56;4961886;28;20046;-77
2023/08/17 04:23:14;;;;;;;12.60;3.28;;;;;;;19.18;100.00;100787.47;4973889;28;20081;-76
2023/08/17 04:26:18;;;;;;;8.63;2.33;;;;;;;19.11;100.00;100786.28;4961925;28;20130;-76
2023/08/17 04:29:21;;;;;;;7.95;2.30;;;;;;;19.06;100.00;100794.63;4961561;28;20042;-76
2023/08/17 04:32:24;;;;;;;5.97;1.98;;;;;;;19.07;100.00;100798.94;4961284;28;20053;-74
2023/08/17 04:35:28;;;;;;;4.75;2.30;;;;;;;19.10;100.00;100801.34;4972053;28;20159;-75
2023/08/17 04:38:31;;;;;;;9.40;2.42;;;;;;;19.13;100.00;100800.25;4962806;28;20045;-76
2023/08/17 04:41:38;;;;;;;17.23;3.10;;;;;;;19.22;100.00;100794.19;4976288;28;20050;-77
2023/08/17 04:44:44;;;;;;;8.88;2.55;;;;;;;19.12;100.00;100794.13;4964209;28;20057;-79
2023/08/17 04:47:47;;;;;;;7.70;2.10;;;;;;;19.13;100.00;100803.72;4964172;28;20049;-77
2023/08/17 04:50:51;;;;;;;9.25;2.30;;;;;;;19.13;100.00;100806.38;4964038;28;20046;-78
2023/08/17 04:53:54;;;;;;;8.20;2.42;;;;;;;19.16;100.00;100800.81;4964222;28;20081;-78
2023/08/17 04:56:58;;;;;;;8.48;2.40;;;;;;;19.19;100.00;100795.28;4964010;28;20083;-79
2023/08/17 05:00:03;;;;;;;5.97;1.95;;;;;;;19.23;100.00;100799.34;4964356;28;20081;-78
2023/08/17 05:03:07;;;;;;;8.82;2.45;;;;;;;19.26;100.00;100785.00;4977006;28;20074;-82
2023/08/17 05:06:14;;;;;;;10.65;2.28;;;;;;;19.23;100.00;100790.53;4963937;28;20523;-78
2023/08/17 05:09:17;;;;;;;4.45;1.90;;;;;;;19.17;100.00;100785.75;4963928;28;20090;-75
2023/08/17 05:12:21;;;;;;;7.28;1.98;;;;;;;19.17;100.00;100783.09;4975463;28;20045;-75
2023/08/17 05:15:25;;;;;;;7.63;1.98;;;;;;;19.16;100.00;100800.81;4975702;28;20045;-80
2023/08/17 05:18:28;;;;;;;8.10;1.90;;;;;;;19.16;100.00;100800.00;4963907;28;20400;-80
2023/08/17 05:21:34;;;;;;;6.88;2.20;;;;;;;19.16;100.00;100798.19;4963586;28;20410;-78
2023/08/17 05:24:39;;;;;;;4.78;1.90;;;;;;;19.18;100.00;100806.84;4975686;28;20081;-79
2023/08/17 05:27:44;;;;;;;7.50;2.10;;;;;;;19.19;100.00;100805.88;4975637;28;20093;-80
2023/08/17 05:30:49;;;;;;;8.43;1.90;;;;;;;19.21;100.00;100803.09;4963235;28;20050;-80
2023/08/17 05:33:52;;;;;;;3.35;1.98;;;;;;;19.26;100.00;100812.34;4963353;28;20049;-80
2023/08/17 05:36:56;;;;;;;6.75;1.90;;;;;;;19.23;100.00;100807.28;4958393;28;20519;-79
2023/08/17 05:39:59;;;;;;;5.60;2.10;;;;;;;19.31;100.00;100808.47;4962848;28;20090;-80
2023/08/17 05:43:03;;;;;;;5.80;1.73;;;;;;;19.26;100.00;100811.50;4943122;28;20073;-80
2023/08/17 05:46:06;;;;;;;6.22;2.05;;;;;;;19.19;100.00;100820.94;4965705;28;20046;-80
2023/08/17 05:49:10;;;;;;;3.60;1.55;;;;;;;19.18;100.00;100825.41;4952169;28;20453;-80
2023/08/17 05:52:14;;;;;;;5.90;1.80;;;;;;;19.16;100.00;100816.72;4962880;28;20042;-80
2023/08/17 05:55:17;;;;;;;3.17;1.30;;;;;;;19.22;100.00;100818.88;4961776;28;20509;-81
2023/08/17 05:58:21;;;;;;;6.28;1.50;;;;;;;19.22;100.00;100821.53;4958923;28;20559;-81
2023/08/17 06:01:25;;;;;;;4.13;1.80;;;;;;;19.21;100.00;100814.56;4964622;28;20452;-83
2023/08/17 06:04:28;;;;;;;3.20;1.73;;;;;;;19.20;100.00;100822.63;4964843;28;20058;-81
2023/08/17 06:07:32;;;;;;;4.60;2.30;;;;;;;19.21;100.00;100819.84;4965250;28;20049;-82
2023/08/17 06:10:36;;;;;;;4.93;2.15;;;;;;;19.26;100.00;100828.25;4963995;28;20559;-82
2023/08/17 06:13:40;;;;;;;6.28;2.03;;;;;;;19.35;100.00;100831.09;4963773;28;20121;-82
2023/08/17 06:16:43;;;;;;;4.50;2.28;;;;;;;19.35;100.00;100831.09;4941321;28;20054;-82
2023/08/17 06:19:46;;;;;;;6.20;2.28;;;;;;;19.39;100.00;100830.69;4963660;28;20077;-75
2023/08/17 06:22:50;;;;;;;3.60;1.98;;;;;;;19.48;100.00;100837.03;4963294;28;20077;-80
2023/08/17 06:26:01;;;;;;;4.70;2.20;;;;;;;19.43;100.00;100839.22;4965125;28;20104;-79
2023/08/17 06:29:04;;;;;;;3.88;2.58;;;;;;;19.44;100.00;100841.78;4963189;28;20086;-80
2023/08/17 06:32:08;;;;;;;4.05;1.98;;;;;;;19.40;100.00;100844.78;4963942;28;20044;-79
2023/08/17 06:35:11;;;;;;;3.28;1.85;;;;;;;19.46;100.00;100844.28;4964644;28;20077;-79
2023/08/17 06:38:17;;;;;;;4.88;2.75;;;;;;;19.42;100.00;100849.00;4965598;28;20041;-79
2023/08/17 06:41:21;;;;;;;4.63;1.70;;;;;;;19.41;100.00;100849.16;4961737;28;20046;-77
2023/08/17 06:44:28;;;;;;;5.03;2.47;;;;;;;19.39;100.00;100843.13;4958775;28;20090;-78
2023/08/17 06:47:32;;;;;;;4.80;1.92;;;;;;;19.41;100.00;100830.59;4959381;28;20706;-78
2023/08/17 06:50:35;;;;;;;5.15;2.58;;;;;;;19.51;100.00;100837.63;4956968;28;20057;-79
2023/08/17 06:53:42;;;;;;;7.30;2.50;;;;;;;19.54;100.00;100836.53;4962166;28;20053;-74
2023/08/17 06:56:46;;;;;;;6.88;2.10;;;;;;;19.59;100.00;100829.03;4963830;28;20053;-78
2023/08/17 06:59:49;;;;;;;3.05;2.13;;;;;;;19.61;100.00;100831.53;4962869;28;20054;-78
2023/08/17 07:02:52;;;;;;;4.55;1.73;;;;;;;19.61;100.00;100832.38;4964287;28;20046;-79
2023/08/17 07:05:56;;;;;;;7.70;2.08;;;;;;;19.63;100.00;100833.09;4964906;28;20456;-78
2023/08/17 07:08:59;;;;;;;4.75;1.83;;;;;;;19.72;100.00;100835.00;4960745;28;20039;-79
2023/08/17 07:12:03;;;;;;;3.22;1.90;;;;;;;19.70;100.00;100844.88;4961989;28;20046;-78
2023/08/17 07:15:08;;;;;;;4.80;1.70;;;;;;;19.72;100.00;100839.47;4962815;28;20548;-78
2023/08/17 07:18:14;;;;;;;5.43;2.33;;;;;;;19.71;100.00;100848.38;4963918;28;20057;-77
2023/08/17 07:21:17;;;;;;;4.20;2.72;;;;;;;19.70;100.00;100852.00;4960196;28;20456;-78
2023/08/17 07:24:21;;;;;;;4.25;1.90;;;;;;;19.63;100.00;100850.81;4961225;28;20593;-78
2023/08/17 07:27:25;;;;;;;3.97;2.10;;;;;;;19.64;100.00;100849.88;4962018;28;20043;-77
2023/08/17 07:30:28;;;;;;;3.25;2.15;;;;;;;19.73;100.00;100852.59;4962996;28;20062;-77
2023/08/17 07:33:31;;;;;;;4.80;1.88;;;;;;;19.73;99.42;100847.28;4963509;28;20646;-78
2023/08/17 07:36:35;;;;;;;3.33;1.83;;;;;;;19.82;99.79;100855.44;4963845;28;20170;-79
2023/08/17 07:39:41;;;;;;;4.63;1.73;;;;;;;19.84;100.00;100858.78;4959990;28;20034;-78
2023/08/17 07:42:45;;;;;;;3.67;1.50;;;;;;;19.79;98.09;100859.19;4961445;28;20127;-79
2023/08/17 07:45:59;;;;;;;4.13;1.60;;;;;;;19.86;100.00;100856.84;4963222;28;20074;-79
2023/08/17 07:49:02;;;;;;;4.63;1.50;;;;;;;19.90;99.45;100852.94;4922357;29;20125;-78
2023/08/17 07:52:06;;;;;;;2.78;1.30;;;;;;;20.00;96.77;100847.69;4934581;29;20564;-79
2023/08/17 07:55:09;;;;;;;4.65;1.20;;;;;;;20.05;94.45;100841.00;4934415;29;20086;-79
2023/08/17 07:58:13;;;;;;;3.08;1.48;;;;;;;20.08;94.69;100845.22;4934500;29;20086;-79
2023/08/17 08:01:16;;;;;;;2.33;1.25;;;;;;;20.10;97.18;100845.91;4934486;29;20532;-78
2023/08/17 08:04:20;;;;;;;2.08;1.45;;;;;;;20.09;97.09;100847.72;4934396;29;20107;-79
2023/08/17 08:07:23;;;;;;;3.65;1.20;;;;;;;20.04;96.57;100849.94;4934608;29;20102;-78
2023/08/17 08:10:28;;;;;;;2.40;1.10;;;;;;;20.14;95.26;100850.81;4934571;29;20053;-80
2023/08/17 08:13:31;;;;;;;2.65;1.20;;;;;;;20.16;92.53;100851.50;4934299;29;20050;-83
2023/08/17 08:16:34;;;;;;;3.15;1.27;;;;;;;20.28;94.45;100852.25;4934396;29;20118;-82
2023/08/17 08:19:37;;;;;;;4.07;1.20;;;;;;;20.27;93.95;100850.59;4934425;29;20078;-81
2023/08/17 08:22:41;;;;;;;2.38;1.30;;;;;;;20.31;93.45;100854.63;4934387;29;20145;-80
2023/08/17 08:25:44;;;;;;;3.35;1.13;;;;;;;20.36;92.87;100848.94;4934143;29;20094;-80
2023/08/17 08:28:48;;;;;;;3.03;1.33;;;;;;;20.40;93.43;100845.88;4934129;29;20463;-79
2023/08/17 08:31:51;;;;;;;2.28;1.35;;;;;;;20.45;92.44;100845.44;4934086;29;20545;-78
2023/08/17 08:34:54;;;;;;;4.85;1.90;;;;;;;20.47;93.95;100843.50;4934279;29;20055;-79
2023/08/17 08:37:59;;;;;;;2.63;1.50;;;;;;;20.45;94.55;100837.47;4933918;29;20422;-79
2023/08/17 08:41:03;;;;;;;2.95;1.35;;;;;;;20.39;91.17;100832.75;4934087;29;20115;-79
2023/08/17 08:44:06;;;;;;;6.32;1.67;;;;;;;20.44;92.22;100831.31;4934156;29;20131;-79
2023/08/17 08:47:11;;;;;;;2.30;1.20;;;;;;;20.47;92.35;100845.31;4934119;29;20163;-79
2023/08/17 08:50:20;;;;;;;3.97;1.50;;;;;;;20.53;90.19;100845.66;4934368;29;20050;-79
2023/08/17 08:53:32;;;;;;;3.08;1.35;;;;;;;20.54;91.68;100842.00;4934083;29;20066;-79
2023/08/17 08:56:38;;;;;;;2.77;1.53;;;;;;;20.48;91.56;100853.13;4934036;29;20122;-79
2023/08/17 08:59:45;;;;;;;6.22;1.40;;;;;;;20.50;93.31;100853.03;4933909;29;20275;-78
2023/08/17 09:02:51;;;;;;;2.78;1.60;;;;;;;20.50;93.46;100863.66;4934094;29;20043;-80
2023/08/17 09:05:56;;;;;;;4.15;1.35;;;;;;;20.45;90.54;100861.38;4933825;29;20046;-80
2023/08/17 09:09:02;;;;;;;7.38;1.60;;;;;;;20.47;92.62;100855.94;4933881;29;20473;-80
2023/08/17 09:12:09;;;;;;;3.58;1.10;;;;;;;20.48;90.52;100852.31;4934061;29;20059;-80
2023/08/17 09:15:12;;;;;;;4.22;1.30;;;;;;;20.54;90.50;100842.00;4934209;29;20054;-80
2023/08/17 09:18:16;;;;;;;3.33;1.25;;;;;;;20.71;90.92;100839.66;4933815;29;20042;-69
2023/08/17 09:21:21;;;;;;;2.53;1.38;;;;;;;20.79;92.18;100835.34;4933920;29;20153;-73
2023/08/17 09:24:33;;;;;;;2.88;1.05;;;;;;;20.83;90.67;100843.84;4935871;29;20051;-73
2023/08/17 09:27:38;;;;;;;2.30;1.23;;;;;;;20.93;89.71;100842.06;4936955;29;20099;-69
2023/08/17 09:30:54;;;;;;;3.30;1.58;;;;;;;20.87;88.19;100838.16;4937056;29;20103;-69
2023/08/17 09:33:57;;;;;;;3.42;1.30;;;;;;;20.95;87.87;100842.75;4936898;29;20054;-71
2023/08/17 09:37:04;;;;;;;3.25;1.38;;;;;;;20.98;88.98;100839.81;4937035;29;20118;-70
2023/08/17 09:40:08;;;;;;;3.97;1.50;;;;;;;21.02;88.82;100843.88;4936834;29;20054;-71
2023/08/17 09:43:13;;;;;;;2.17;1.17;;;;;;;20.94;89.27;100840.25;4936817;29;20047;-70
2023/08/17 09:46:17;;;;;;;2.83;1.02;;;;;;;20.92;88.60;100835.06;4936919;29;20666;-72
2023/08/17 09:49:24;;;;;;;2.90;1.52;;;;;;;20.93;88.40;100834.09;4936732;29;20268;-70
2023/08/17 09:52:27;;;;;;;2.67;1.55;;;;;;;21.02;88.15;100827.06;4936919;29;20058;-74
2023/08/17 09:55:33;;;;;;;2.78;1.40;;;;;;;21.13;89.81;100825.13;4936490;29;20055;-69
2023/08/17 09:58:36;;;;;;;3.15;1.50;;;;;;;21.25;88.25;100824.97;4936883;29;20083;-70
2023/08/17 10:01:40;;;;;;;2.85;1.60;;;;;;;21.16;87.50;100823.19;4936614;29;20175;-71
2023/08/17 10:04:52;;;;;;;2.80;1.40;;;;;;;21.21;86.37;100823.56;4937161;29;20475;-85
2023/08/17 10:08:08;;;;;;;3.10;1.42;;;;;;;21.30;86.98;100823.56;4937167;29;20528;-82
2023/08/17 10:11:19;;;;;;;4.57;1.30;;;;;;;21.38;86.46;100830.00;4936924;29;20467;-85
2023/08/17 10:15:20;;;;;;;2.83;1.40;;;;;;;21.26;83.70;100821.34;4936999;29;20050;-85
2023/08/17 10:18:56;;;;;;;2.33;1.42;;;;;;;21.38;85.45;100825.56;4936669;29;20046;-73
2023/08/17 10:22:16;;;;;;;4.85;1.60;;;;;;;21.47;85.69;100829.16;4936721;29;20055;-69
2023/08/17 10:25:21;;;;;;;3.17;1.70;;;;;;;21.39;85.89;100837.03;4937229;29;20114;-70
2023/08/17 10:28:27;;;;;;;4.25;1.42;;;;;;;21.39;84.98;100840.53;4937292;29;20087;-70
2023/08/17 10:31:35;;;;;;;5.13;1.33;;;;;;;21.31;87.05;100841.22;4937067;29;20054;-71
2023/08/17 10:34:41;;;;;;;2.65;1.38;;;;;;;21.35;87.60;100836.47;4935187;29;20099;-70
2023/08/17 10:37:44;;;;;;;5.80;1.60;;;;;;;21.37;84.73;100837.16;4934990;29;20054;-70
2023/08/17 10:41:14;;;;;;;4.20;1.33;;;;;;;21.42;82.98;100826.09;4936137;29;20111;-70
2023/08/17 10:44:41;;;;;;;4.45;1.20;;;;;;;21.45;82.64;100824.00;4936236;29;20062;-69
2023/08/17 10:47:45;;;;;;;3.95;1.70;;;;;;;21.57;82.46;100830.81;4936409;29;20110;-70
2023/08/17 10:51:00;;;;;;;4.53;1.45;;;;;;;21.64;83.46;100824.94;4935859;29;20123;-69
2023/08/17 10:54:04;;;;;;;5.20;2.00;;;;;;;21.68;84.52;100823.66;4935821;29;20082;-70
2023/08/17 10:57:32;;;;;;;3.25;1.33;;;;;;;21.78;84.00;100835.09;4935851;29;20050;-70
2023/08/17 11:00:37;;;;;;;3.60;1.55;;;;;;;21.85;82.10;100840.69;4935743;29;20630;-70
2023/08/17 11:03:42;;;;;;;4.13;1.20;;;;;;;21.87;82.33;100836.88;4935699;29;20045;-70
2023/08/17 11:07:01;;;;;;;4.63;1.20;;;;;;;21.94;81.19;100826.50;4955968;28;20101;-69
2023/08/17 11:10:31;;;;;;;6.97;1.80;;;;;;;22.09;80.42;100829.53;4973798;28;20545;-72
2023/08/17 11:13:38;;;;;;;3.60;1.55;;;;;;;22.23;81.69;100823.72;4973668;28;20109;-70
2023/08/17 11:16:41;;;;;;;3.13;1.83;;;;;;;22.41;81.93;100823.78;4973809;28;20050;-68
2023/08/17 11:19:45;;;;;;;2.88;1.38;;;;;;;22.48;81.71;100827.50;4973437;28;20204;-69
2023/08/17 11:22:48;;;;;;;2.72;1.30;;;;;;;22.63;81.38;100822.50;4972282;28;20183;-70
2023/08/17 11:25:55;;;;;;;3.13;1.42;;;;;;;22.68;78.22;100815.72;4952692;28;20448;-70
2023/08/17 11:28:57;;;;;;;3.72;1.48;;;;;;;22.71;78.05;100815.41;4954494;29;20520;-69
2023/08/17 11:32:01;;;;;;;3.42;1.58;;;;;;;22.70;77.54;100813.75;4956434;28;20065;-69
2023/08/17 11:35:04;;;;;;;3.90;1.60;;;;;;;22.66;76.42;100820.38;4970516;28;20049;-68
2023/08/17 11:38:12;;;;;;;4.43;1.40;;;;;;;22.59;77.20;100823.78;4958118;28;20058;-72
2023/08/17 11:41:19;;;;;;;2.35;1.50;;;;;;;22.43;77.30;100827.97;4963791;28;20068;-71
2023/08/17 11:44:22;;;;;;;2.92;1.65;;;;;;;22.48;77.18;100824.84;4962826;28;20046;-79
2023/08/17 11:47:26;;;;;;;3.30;1.33;;;;;;;22.50;76.24;100839.69;4959664;28;20094;-80
2023/08/17 11:50:29;;;;;;;3.20;1.08;;;;;;;22.56;75.78;100832.06;4962503;28;20086;-79
2023/08/17 11:53:36;;;;;;;2.53;1.25;;;;;;;22.66;75.22;100833.69;4963506;28;20085;-77
2023/08/17 11:56:41;;;;;;;2.45;1.33;;;;;;;22.88;74.94;100832.41;4964611;28;20133;-77
2023/08/17 11:59:44;;;;;;;3.85;1.17;;;;;;;23.10;74.03;100820.47;4965381;28;20043;-77
2023/08/17 12:02:50;;;;;;;3.30;1.20;;;;;;;23.19;72.68;100824.03;4958711;28;20053;-78
2023/08/17 12:05:55;;;;;;;2.97;1.50;;;;;;;23.24;73.44;100827.06;4959186;28;20046;-79
2023/08/17 12:09:04;;;;;;;2.63;1.10;;;;;;;23.19;72.15;100829.34;4965725;28;20113;-78
2023/08/17 12:12:09;;;;;;;2.78;1.30;;;;;;;23.16;72.34;100822.50;4958761;28;20049;-78
2023/08/17 12:15:12;;;;;;;2.53;1.20;;;;;;;23.20;72.66;100815.03;4962417;28;20138;-77
2023/08/17 12:18:22;;;;;;;2.80;0.98;;;;;;;23.23;72.51;100812.06;4965752;28;20054;-91
2023/08/17 12:21:32;;;;;;;2.47;1.40;;;;;;;23.07;72.26;100818.13;4950955;28;20042;-81
2023/08/17 12:24:40;;;;;;;5.45;1.23;;;;;;;23.18;72.52;100811.69;4962715;28;20078;-79
2023/08/17 12:27:47;;;;;;;4.05;1.05;;;;;;;23.34;71.82;100795.78;4948899;28;20053;-78
2023/08/17 12:31:01;;;;;;;5.78;1.67;;;;;;;23.66;74.14;100795.16;4961380;28;20098;-78
2023/08/17 12:34:07;;;;;;;3.22;1.35;;;;;;;23.87;74.41;100791.28;4959861;28;20057;-77
2023/08/17 12:37:12;;;;;;;2.25;1.00;;;;;;;23.94;70.47;100792.31;4961168;28;20058;-78
2023/08/17 12:40:15;;;;;;;3.67;1.23;;;;;;;23.97;69.81;100791.16;4962910;28;20049;-78
2023/08/17 12:43:20;;;;;;;6.93;1.38;;;;;;;24.09;69.86;100787.19;4963974;28;20050;-80
2023/08/17 12:46:23;;;;;;;1.80;1.00;;;;;;;24.28;68.76;100778.91;4966504;28;20050;-78
2023/08/17 12:49:27;;;;;;;3.88;1.42;;;;;;;24.49;69.12;100783.81;4956590;28;20142;-76
2023/08/17 12:52:30;;;;;;;6.00;1.45;;;;;;;24.66;67.48;100784.66;4933358;29;20461;-78
2023/08/17 12:55:33;;;;;;;4.20;1.10;;;;;;;24.64;66.70;100783.19;4933972;29;20066;-77
2023/08/17 12:58:36;;;;;;;4.53;1.23;;;;;;;24.73;67.03;100772.34;4934894;29;20070;-75
2023/08/17 13:01:40;;;;;;;3.47;1.10;;;;;;;25.18;67.21;100776.34;4937827;29;20477;-77
2023/08/17 13:04:44;;;;;;;3.58;0.90;;;;;;;25.27;64.49;100770.00;4938037;29;20057;-79
2023/08/17 13:07:47;;;;;;;2.50;1.20;;;;;;;25.37;65.33;100761.78;4937650;29;20050;-76
2023/08/17 13:10:50;;;;;;;3.97;1.15;;;;;;;25.68;64.79;100764.50;4955392;28;20075;-79
2023/08/17 13:13:53;;;;;;;3.10;1.27;;;;;;;25.94;64.85;100755.38;4956866;29;20166;-79
2023/08/17 13:16:57;;;;;;;2.75;1.05;;;;;;;26.05;64.03;100757.69;4956776;29;20038;-80
2023/08/17 13:20:00;;;;;;;2.40;1.17;;;;;;;26.23;63.79;100743.19;4956868;29;20075;-80
2023/08/17 13:23:04;;;;;;;2.42;1.08;;;;;;;26.43;63.04;100742.56;4957324;29;20053;-81
2023/08/17 13:26:08;;;;;;;2.00;1.00;;;;;;;26.42;61.83;100740.06;4958013;29;20054;-82
2023/08/17 13:29:38;;;;;;;3.83;1.02;;;;;;;26.12;62.37;100745.25;4956922;29;20250;-81
2023/08/17 13:33:08;;;;;;;2.58;1.17;;;;;;;25.96;63.46;100742.66;4949550;29;20046;-78
2023/08/17 13:36:40;;;;;;;4.32;1.00;;;;;;;25.97;65.54;100734.47;4956395;29;20118;-88
2023/08/17 13:39:44;;;;;;;1.98;1.00;;;;;;;26.04;64.16;100731.91;4956746;29;20095;-81
2023/08/17 13:42:48;;;;;;;4.28;1.30;;;;;;;26.14;65.37;100727.16;4944360;29;20094;-80
2023/08/17 13:45:52;;;;;;;4.88;1.20;;;;;;;26.44;63.75;100724.63;4956418;29;20082;-82
2023/08/17 13:48:55;;;;;;;2.83;1.25;;;;;;;26.76;63.46;100720.03;4971191;28;20073;-82
2023/08/17 13:51:58;;;;;;;3.78;1.10;;;;;;;26.85;61.89;100724.31;4975565;28;20085;-81
2023/08/17 13:55:04;;;;;;;4.95;1.30;;;;;;;26.87;61.92;100708.88;4974904;28;20089;-79
2023/08/17 13:58:09;;;;;;;1.95;0.95;;;;;;;27.30;61.20;100706.44;4975172;28;20046;-79
2023/08/17 14:01:14;;;;;;;3.08;1.33;;;;;;;28.22;58.36;100692.50;4937128;29;20055;-84
2023/08/17 14:04:18;;;;;;;5.25;1.40;;;;;;;29.33;52.16;100693.63;4937377;29;20625;-82
2023/08/17 14:07:21;;;;;;;3.13;1.30;;;;;;;29.04;52.37;100691.19;4955262;29;20046;-79
2023/08/17 14:10:27;;;;;;;3.10;1.33;;;;;;;28.19;54.37;100684.81;4955936;28;20102;-77
2023/08/17 14:13:58;;;;;;;3.22;1.30;;;;;;;29.84;51.08;100682.47;4942445;29;20073;-76
2023/08/17 14:17:02;;;;;;;3.13;1.30;;;;;;;29.73;51.44;100676.81;4953939;29;20049;-76